BIKF

Keflavik International Airport

Reykjavík, Iceland
METAR BIKF 191600Z 22011KT 9999 VCSH FEW014CB SCT040 BKN070 02/M00 Q0998
Observed Flight Rules
Jan-19 @ 16:00 UTC (37 minutes ago) Visual Flight Rules
Wind Visibility Clouds
220° at 11 knots 10,000+ meters
  • Few at 1,400' AGL
  • Scattered at 4,000' AGL
  • Broken at 7,000' AGL
Temperatures Readings
Current 2°C / 36°F
Dewpoint 0°C / 32°F
Humidity 87%
Altimeter 29.47" Hg
Pressure 997.92 hPa
Elevation 54
METAR BIKF 191600Z 22011KT 9999 VCSH FEW014CB SCT040 BKN070 02/M00 Q0998
Observed Flight Rules
Jan-19 @ 16:00 UTC
(37 minutes ago)
VFR
Wind Visibility
220° at 11 knots 10,000+ meters
Clouds
  • Few at 1,400' AGL
  • Scattered at 4,000' AGL
  • Broken at 7,000' AGL
Temperature Dewpoint
2°C / 36°F 0°C / 32°F
Humidity Altimeter Pressure
87% 29.47" Hg 997.92 hPa